sensor_id;sensor_type;location;lat;lon;timestamp;temperature;humidity
16154;DHT22;8182;55.648;13.208;2024-01-25T00:00:18;6.10;1.00
16154;DHT22;8182;55.648;13.208;2024-01-25T00:02:45;6.10;1.00
16154;DHT22;8182;55.648;13.208;2024-01-25T00:05:12;6.20;1.00
16154;DHT22;8182;55.648;13.208;2024-01-25T00:07:46;6.20;1.00
16154;DHT22;8182;55.648;13.208;2024-01-25T00:10:13;6.30;1.00
16154;DHT22;8182;55.648;13.208;2024-01-25T00:12:40;6.40;1.00
16154;DHT22;8182;55.648;13.208;2024-01-25T00:15:08;6.40;1.00
16154;DHT22;8182;55.648;13.208;2024-01-25T00:17:35;6.40;1.00
16154;DHT22;8182;55.648;13.208;2024-01-25T00:20:03;6.40;1.00
16154;DHT22;8182;55.648;13.208;2024-01-25T00:22:29;6.30;1.00
16154;DHT22;8182;55.648;13.208;2024-01-25T00:24:57;6.30;1.00
16154;DHT22;8182;55.648;13.208;2024-01-25T00:27:25;6.30;1.00
16154;DHT22;8182;55.648;13.208;2024-01-25T00:29:51;6.20;1.00
16154;DHT22;8182;55.648;13.208;2024-01-25T00:32:18;6.20;1.00
16154;DHT22;8182;55.648;13.208;2024-01-25T00:34:46;6.20;1.00
16154;DHT22;8182;55.648;13.208;2024-01-25T00:37:13;6.20;1.00
16154;DHT22;8182;55.648;13.208;2024-01-25T00:39:40;6.20;1.00
16154;DHT22;8182;55.648;13.208;2024-01-25T00:42:13;6.20;1.00
16154;DHT22;8182;55.648;13.208;2024-01-25T00:44:41;6.30;1.00
16154;DHT22;8182;55.648;13.208;2024-01-25T00:47:09;6.30;1.00
16154;DHT22;8182;55.648;13.208;2024-01-25T00:49:36;6.40;1.00
16154;DHT22;8182;55.648;13.208;2024-01-25T00:52:03;6.40;1.00
16154;DHT22;8182;55.648;13.208;2024-01-25T00:54:31;6.30;1.00
16154;DHT22;8182;55.648;13.208;2024-01-25T00:56:58;6.30;1.00
16154;DHT22;8182;55.648;13.208;2024-01-25T00:59:28;6.20;1.00
16154;DHT22;8182;55.648;13.208;2024-01-25T01:01:55;6.30;1.00
16154;DHT22;8182;55.648;13.208;2024-01-25T01:04:24;6.30;1.00
16154;DHT22;8182;55.648;13.208;2024-01-25T01:06:51;6.30;1.00
16154;DHT22;8182;55.648;13.208;2024-01-25T01:09:18;6.20;1.00
16154;DHT22;8182;55.648;13.208;2024-01-25T01:11:45;6.20;1.00
16154;DHT22;8182;55.648;13.208;2024-01-25T01:14:12;6.20;1.00
16154;DHT22;8182;55.648;13.208;2024-01-25T01:16:40;6.20;1.00
16154;DHT22;8182;55.648;13.208;2024-01-25T01:19:07;6.30;1.00
16154;DHT22;8182;55.648;13.208;2024-01-25T01:21:34;6.30;1.00
16154;DHT22;8182;55.648;13.208;2024-01-25T01:24:01;6.30;1.00
16154;DHT22;8182;55.648;13.208;2024-01-25T01:26:28;6.30;1.00
16154;DHT22;8182;55.648;13.208;2024-01-25T01:28:55;6.30;1.00
16154;DHT22;8182;55.648;13.208;2024-01-25T01:31:22;6.30;1.00
16154;DHT22;8182;55.648;13.208;2024-01-25T01:33:51;6.40;1.00
16154;DHT22;8182;55.648;13.208;2024-01-25T01:36:18;6.40;1.00
16154;DHT22;8182;55.648;13.208;2024-01-25T01:38:45;6.40;1.00
16154;DHT22;8182;55.648;13.208;2024-01-25T01:41:12;6.40;1.00
16154;DHT22;8182;55.648;13.208;2024-01-25T01:43:38;6.40;1.00
16154;DHT22;8182;55.648;13.208;2024-01-25T01:46:09;6.30;1.00
16154;DHT22;8182;55.648;13.208;2024-01-25T01:48:38;6.30;1.00
16154;DHT22;8182;55.648;13.208;2024-01-25T01:51:08;6.20;1.00
16154;DHT22;8182;55.648;13.208;2024-01-25T01:53:36;6.20;1.00
16154;DHT22;8182;55.648;13.208;2024-01-25T01:56:03;6.20;1.00
16154;DHT22;8182;55.648;13.208;2024-01-25T01:58:31;6.20;1.00
16154;DHT22;8182;55.648;13.208;2024-01-25T02:00:59;6.30;1.00
16154;DHT22;8182;55.648;13.208;2024-01-25T02:03:26;6.30;1.00
16154;DHT22;8182;55.648;13.208;2024-01-25T02:05:53;6.40;1.00
16154;DHT22;8182;55.648;13.208;2024-01-25T02:08:22;6.40;1.00
16154;DHT22;8182;55.648;13.208;2024-01-25T02:10:49;6.40;1.00
16154;DHT22;8182;55.648;13.208;2024-01-25T02:13:15;6.40;1.00
16154;DHT22;8182;55.648;13.208;2024-01-25T02:15:43;6.40;1.00
16154;DHT22;8182;55.648;13.208;2024-01-25T02:18:10;6.30;1.00
16154;DHT22;8182;55.648;13.208;2024-01-25T02:20:37;6.30;1.00
16154;DHT22;8182;55.648;13.208;2024-01-25T02:23:05;6.20;1.00
16154;DHT22;8182;55.648;13.208;2024-01-25T02:25:32;6.10;1.00
16154;DHT22;8182;55.648;13.208;2024-01-25T02:27:59;6.20;1.00
16154;DHT22;8182;55.648;13.208;2024-01-25T02:30:26;6.10;1.00
16154;DHT22;8182;55.648;13.208;2024-01-25T02:32:53;6.20;1.00
16154;DHT22;8182;55.648;13.208;2024-01-25T02:35:19;6.20;1.00
16154;DHT22;8182;55.648;13.208;2024-01-25T02:37:46;6.30;1.00
16154;DHT22;8182;55.648;13.208;2024-01-25T02:40:15;6.30;1.00
16154;DHT22;8182;55.648;13.208;2024-01-25T02:42:42;6.30;1.00
16154;DHT22;8182;55.648;13.208;2024-01-25T02:45:09;6.20;1.00
16154;DHT22;8182;55.648;13.208;2024-01-25T02:47:36;6.20;1.00
16154;DHT22;8182;55.648;13.208;2024-01-25T02:50:04;6.20;1.00
16154;DHT22;8182;55.648;13.208;2024-01-25T02:52:31;6.20;1.00
16154;DHT22;8182;55.648;13.208;2024-01-25T02:54:58;6.20;1.00
16154;DHT22;8182;55.648;13.208;2024-01-25T02:57:29;6.20;1.00
16154;DHT22;8182;55.648;13.208;2024-01-25T02:59:57;6.00;1.00
16154;DHT22;8182;55.648;13.208;2024-01-25T03:02:23;5.90;1.00
16154;DHT22;8182;55.648;13.208;2024-01-25T03:04:50;5.80;1.00
16154;DHT22;8182;55.648;13.208;2024-01-25T03:07:17;5.90;1.00
16154;DHT22;8182;55.648;13.208;2024-01-25T03:09:44;6.00;1.00
16154;DHT22;8182;55.648;13.208;2024-01-25T03:12:11;6.00;1.00
16154;DHT22;8182;55.648;13.208;2024-01-25T03:14:39;6.00;1.00
16154;DHT22;8182;55.648;13.208;2024-01-25T03:17:06;5.90;1.00
16154;DHT22;8182;55.648;13.208;2024-01-25T03:19:33;5.90;1.00
16154;DHT22;8182;55.648;13.208;2024-01-25T03:22:00;5.90;1.00
16154;DHT22;8182;55.648;13.208;2024-01-25T03:24:27;6.00;1.00
16154;DHT22;8182;55.648;13.208;2024-01-25T03:26:54;5.90;1.00
16154;DHT22;8182;55.648;13.208;2024-01-25T03:29:21;5.90;1.00
16154;DHT22;8182;55.648;13.208;2024-01-25T03:31:49;5.80;1.00
16154;DHT22;8182;55.648;13.208;2024-01-25T03:34:16;5.70;1.00
16154;DHT22;8182;55.648;13.208;2024-01-25T03:36:43;5.50;1.00
16154;DHT22;8182;55.648;13.208;2024-01-25T03:39:10;5.60;1.00
16154;DHT22;8182;55.648;13.208;2024-01-25T03:41:37;5.50;1.00
16154;DHT22;8182;55.648;13.208;2024-01-25T03:44:04;5.50;1.00
16154;DHT22;8182;55.648;13.208;2024-01-25T03:46:31;5.60;1.00
16154;DHT22;8182;55.648;13.208;2024-01-25T03:48:59;5.70;1.00
16154;DHT22;8182;55.648;13.208;2024-01-25T03:51:26;5.80;1.00
16154;DHT22;8182;55.648;13.208;2024-01-25T03:53:53;5.80;1.00
16154;DHT22;8182;55.648;13.208;2024-01-25T03:56:21;5.80;1.00
16154;DHT22;8182;55.648;13.208;2024-01-25T03:58:48;5.90;1.00
16154;DHT22;8182;55.648;13.208;2024-01-25T04:01:15;5.90;1.00
16154;DHT22;8182;55.648;13.208;2024-01-25T04:03:42;5.90;1.00
16154;DHT22;8182;55.648;13.208;2024-01-25T04:06:10;5.90;1.00
16154;DHT22;8182;55.648;13.208;2024-01-25T04:08:37;5.80;1.00
16154;DHT22;8182;55.648;13.208;2024-01-25T04:11:04;5.80;1.00
16154;DHT22;8182;55.648;13.208;2024-01-25T04:13:31;5.80;1.00
16154;DHT22;8182;55.648;13.208;2024-01-25T04:15:58;5.80;1.00
16154;DHT22;8182;55.648;13.208;2024-01-25T04:18:26;5.90;1.00
16154;DHT22;8182;55.648;13.208;2024-01-25T04:20:53;5.90;1.00
16154;DHT22;8182;55.648;13.208;2024-01-25T04:23:21;5.90;1.00
16154;DHT22;8182;55.648;13.208;2024-01-25T04:25:48;5.90;1.00
16154;DHT22;8182;55.648;13.208;2024-01-25T04:28:15;6.00;1.00
16154;DHT22;8182;55.648;13.208;2024-01-25T04:30:41;5.90;1.00
16154;DHT22;8182;55.648;13.208;2024-01-25T04:33:08;5.90;1.00
16154;DHT22;8182;55.648;13.208;2024-01-25T04:35:34;5.80;1.00
16154;DHT22;8182;55.648;13.208;2024-01-25T04:38:01;5.80;1.00
16154;DHT22;8182;55.648;13.208;2024-01-25T04:40:30;5.70;1.00
16154;DHT22;8182;55.648;13.208;2024-01-25T04:42:56;5.70;1.00
16154;DHT22;8182;55.648;13.208;2024-01-25T04:45:24;5.80;1.00
16154;DHT22;8182;55.648;13.208;2024-01-25T04:47:51;5.70;1.00
16154;DHT22;8182;55.648;13.208;2024-01-25T04:50:18;5.50;1.00
16154;DHT22;8182;55.648;13.208;2024-01-25T04:52:44;5.50;1.00
16154;DHT22;8182;55.648;13.208;2024-01-25T04:55:11;5.50;1.00
16154;DHT22;8182;55.648;13.208;2024-01-25T04:57:40;5.60;1.00
16154;DHT22;8182;55.648;13.208;2024-01-25T05:00:09;5.60;1.00
16154;DHT22;8182;55.648;13.208;2024-01-25T05:02:36;5.50;1.00
16154;DHT22;8182;55.648;13.208;2024-01-25T05:05:03;5.40;1.00
16154;DHT22;8182;55.648;13.208;2024-01-25T05:07:30;5.40;1.00
16154;DHT22;8182;55.648;13.208;2024-01-25T05:09:57;5.40;1.00
16154;DHT22;8182;55.648;13.208;2024-01-25T05:12:24;5.50;1.00
16154;DHT22;8182;55.648;13.208;2024-01-25T05:14:52;5.40;1.00
16154;DHT22;8182;55.648;13.208;2024-01-25T05:17:19;5.40;1.00
16154;DHT22;8182;55.648;13.208;2024-01-25T05:19:46;5.20;1.00
16154;DHT22;8182;55.648;13.208;2024-01-25T05:22:13;5.20;1.00
16154;DHT22;8182;55.648;13.208;2024-01-25T05:24:40;5.20;1.00
16154;DHT22;8182;55.648;13.208;2024-01-25T05:27:06;5.10;1.00
16154;DHT22;8182;55.648;13.208;2024-01-25T05:29:33;5.20;1.00
16154;DHT22;8182;55.648;13.208;2024-01-25T05:32:02;5.20;1.00
16154;DHT22;8182;55.648;13.208;2024-01-25T05:34:29;5.10;1.00
16154;DHT22;8182;55.648;13.208;2024-01-25T05:36:56;5.00;1.00
16154;DHT22;8182;55.648;13.208;2024-01-25T05:39:23;5.10;1.00
16154;DHT22;8182;55.648;13.208;2024-01-25T05:41:49;5.00;1.00
16154;DHT22;8182;55.648;13.208;2024-01-25T05:44:16;5.10;1.00
16154;DHT22;8182;55.648;13.208;2024-01-25T05:46:43;5.20;1.00
16154;DHT22;8182;55.648;13.208;2024-01-25T05:49:11;5.30;1.00
16154;DHT22;8182;55.648;13.208;2024-01-25T05:51:44;5.40;1.00
16154;DHT22;8182;55.648;13.208;2024-01-25T05:54:11;5.30;1.00
16154;DHT22;8182;55.648;13.208;2024-01-25T05:56:38;5.30;1.00
16154;DHT22;8182;55.648;13.208;2024-01-25T05:59:05;5.20;1.00
16154;DHT22;8182;55.648;13.208;2024-01-25T06:01:32;5.10;1.00
16154;DHT22;8182;55.648;13.208;2024-01-25T06:03:59;5.10;1.00
16154;DHT22;8182;55.648;13.208;2024-01-25T06:06:27;5.30;1.00
16154;DHT22;8182;55.648;13.208;2024-01-25T06:08:54;5.40;1.00
16154;DHT22;8182;55.648;13.208;2024-01-25T06:11:21;5.50;1.00
16154;DHT22;8182;55.648;13.208;2024-01-25T06:13:47;5.40;1.00
16154;DHT22;8182;55.648;13.208;2024-01-25T06:16:14;5.40;1.00
16154;DHT22;8182;55.648;13.208;2024-01-25T06:18:41;5.30;1.00
16154;DHT22;8182;55.648;13.208;2024-01-25T06:21:08;5.30;1.00
16154;DHT22;8182;55.648;13.208;2024-01-25T06:23:37;5.30;1.00
16154;DHT22;8182;55.648;13.208;2024-01-25T06:26:04;5.40;1.00
16154;DHT22;8182;55.648;13.208;2024-01-25T06:28:31;5.50;1.00
16154;DHT22;8182;55.648;13.208;2024-01-25T06:31:00;5.40;1.00
16154;DHT22;8182;55.648;13.208;2024-01-25T06:33:27;5.40;1.00
16154;DHT22;8182;55.648;13.208;2024-01-25T06:35:58;5.40;1.00
16154;DHT22;8182;55.648;13.208;2024-01-25T06:38:24;5.40;1.00
16154;DHT22;8182;55.648;13.208;2024-01-25T06:40:53;5.50;1.00
16154;DHT22;8182;55.648;13.208;2024-01-25T06:43:20;5.50;1.00
16154;DHT22;8182;55.648;13.208;2024-01-25T06:45:46;5.50;1.00
16154;DHT22;8182;55.648;13.208;2024-01-25T06:48:14;5.50;1.00
16154;DHT22;8182;55.648;13.208;2024-01-25T06:50:40;5.60;1.00
16154;DHT22;8182;55.648;13.208;2024-01-25T06:53:07;5.60;1.00
16154;DHT22;8182;55.648;13.208;2024-01-25T06:55:34;5.60;1.00
16154;DHT22;8182;55.648;13.208;2024-01-25T06:58:03;5.50;1.00
16154;DHT22;8182;55.648;13.208;2024-01-25T07:00:30;5.30;1.00
16154;DHT22;8182;55.648;13.208;2024-01-25T07:02:56;5.40;1.00
16154;DHT22;8182;55.648;13.208;2024-01-25T07:05:23;5.30;1.00
16154;DHT22;8182;55.648;13.208;2024-01-25T07:07:50;5.40;1.00
16154;DHT22;8182;55.648;13.208;2024-01-25T07:10:17;5.50;1.00
16154;DHT22;8182;55.648;13.208;2024-01-25T07:12:44;5.50;1.00
16154;DHT22;8182;55.648;13.208;2024-01-25T07:15:17;5.50;1.00
16154;DHT22;8182;55.648;13.208;2024-01-25T07:17:44;5.60;1.00
16154;DHT22;8182;55.648;13.208;2024-01-25T07:20:11;5.60;1.00
16154;DHT22;8182;55.648;13.208;2024-01-25T07:22:39;5.60;1.00
16154;DHT22;8182;55.648;13.208;2024-01-25T07:25:06;5.60;1.00
16154;DHT22;8182;55.648;13.208;2024-01-25T07:27:33;5.50;1.00
16154;DHT22;8182;55.648;13.208;2024-01-25T07:30:00;5.50;1.00
16154;DHT22;8182;55.648;13.208;2024-01-25T07:32:28;5.40;1.00
16154;DHT22;8182;55.648;13.208;2024-01-25T07:34:56;5.40;1.00
16154;DHT22;8182;55.648;13.208;2024-01-25T07:37:22;5.50;1.00
16154;DHT22;8182;55.648;13.208;2024-01-25T07:39:49;5.50;1.00
16154;DHT22;8182;55.648;13.208;2024-01-25T07:42:16;5.50;1.00
16154;DHT22;8182;55.648;13.208;2024-01-25T07:44:43;5.50;1.00
16154;DHT22;8182;55.648;13.208;2024-01-25T07:47:10;5.60;1.00
16154;DHT22;8182;55.648;13.208;2024-01-25T07:49:40;5.60;1.00
16154;DHT22;8182;55.648;13.208;2024-01-25T07:52:07;5.60;1.00
16154;DHT22;8182;55.648;13.208;2024-01-25T07:54:34;5.60;1.00
16154;DHT22;8182;55.648;13.208;2024-01-25T07:57:01;5.50;1.00
16154;DHT22;8182;55.648;13.208;2024-01-25T07:59:28;5.40;1.00
16154;DHT22;8182;55.648;13.208;2024-01-25T08:01:55;5.40;1.00
16154;DHT22;8182;55.648;13.208;2024-01-25T08:04:22;5.50;1.00
16154;DHT22;8182;55.648;13.208;2024-01-25T08:06:52;5.50;1.00
16154;DHT22;8182;55.648;13.208;2024-01-25T08:09:18;5.60;1.00
16154;DHT22;8182;55.648;13.208;2024-01-25T08:11:45;5.60;1.00
16154;DHT22;8182;55.648;13.208;2024-01-25T08:14:14;5.50;1.00
16154;DHT22;8182;55.648;13.208;2024-01-25T08:16:44;5.50;1.00
16154;DHT22;8182;55.648;13.208;2024-01-25T08:19:11;5.50;1.00
16154;DHT22;8182;55.648;13.208;2024-01-25T08:21:38;5.60;1.00
16154;DHT22;8182;55.648;13.208;2024-01-25T08:24:06;5.60;1.00
16154;DHT22;8182;55.648;13.208;2024-01-25T08:26:34;5.60;1.00
16154;DHT22;8182;55.648;13.208;2024-01-25T08:29:00;5.70;1.00
16154;DHT22;8182;55.648;13.208;2024-01-25T08:31:27;5.70;1.00
16154;DHT22;8182;55.648;13.208;2024-01-25T08:33:54;5.70;1.00
16154;DHT22;8182;55.648;13.208;2024-01-25T08:36:21;5.70;1.00
16154;DHT22;8182;55.648;13.208;2024-01-25T08:38:50;5.60;1.00
16154;DHT22;8182;55.648;13.208;2024-01-25T08:41:18;5.50;1.00
16154;DHT22;8182;55.648;13.208;2024-01-25T08:43:45;5.40;1.00
16154;DHT22;8182;55.648;13.208;2024-01-25T08:46:13;5.40;1.00
16154;DHT22;8182;55.648;13.208;2024-01-25T08:48:40;5.50;1.00
16154;DHT22;8182;55.648;13.208;2024-01-25T08:51:08;5.60;1.00
16154;DHT22;8182;55.648;13.208;2024-01-25T08:53:35;5.60;1.00
16154;DHT22;8182;55.648;13.208;2024-01-25T08:56:02;5.70;1.00
16154;DHT22;8182;55.648;13.208;2024-01-25T08:58:31;5.60;1.00
16154;DHT22;8182;55.648;13.208;2024-01-25T09:00:58;5.60;1.00
16154;DHT22;8182;55.648;13.208;2024-01-25T09:03:25;5.60;1.00
16154;DHT22;8182;55.648;13.208;2024-01-25T09:05:52;5.50;1.00
16154;DHT22;8182;55.648;13.208;2024-01-25T09:08:19;5.40;1.00
16154;DHT22;8182;55.648;13.208;2024-01-25T09:10:49;5.60;1.00
16154;DHT22;8182;55.648;13.208;2024-01-25T09:13:16;5.60;1.00
16154;DHT22;8182;55.648;13.208;2024-01-25T09:15:43;5.60;1.00
16154;DHT22;8182;55.648;13.208;2024-01-25T09:18:12;5.60;1.00
16154;DHT22;8182;55.648;13.208;2024-01-25T09:20:40;5.60;1.00
16154;DHT22;8182;55.648;13.208;2024-01-25T09:23:13;5.40;1.00
16154;DHT22;8182;55.648;13.208;2024-01-25T09:25:40;5.50;1.00
16154;DHT22;8182;55.648;13.208;2024-01-25T09:28:08;5.60;1.00
16154;DHT22;8182;55.648;13.208;2024-01-25T09:30:37;6.20;1.00
16154;DHT22;8182;55.648;13.208;2024-01-25T09:33:06;6.10;1.00
16154;DHT22;8182;55.648;13.208;2024-01-25T09:35:33;5.80;1.00
16154;DHT22;8182;55.648;13.208;2024-01-25T09:38:00;5.90;1.00
16154;DHT22;8182;55.648;13.208;2024-01-25T09:40:26;6.10;1.00
16154;DHT22;8182;55.648;13.208;2024-01-25T09:42:54;7.60;1.00
16154;DHT22;8182;55.648;13.208;2024-01-25T09:45:24;7.80;1.00
16154;DHT22;8182;55.648;13.208;2024-01-25T09:47:51;7.50;1.00
16154;DHT22;8182;55.648;13.208;2024-01-25T09:50:19;7.20;1.00
16154;DHT22;8182;55.648;13.208;2024-01-25T09:52:53;7.00;1.00
16154;DHT22;8182;55.648;13.208;2024-01-25T09:55:24;6.70;1.00
16154;DHT22;8182;55.648;13.208;2024-01-25T09:57:53;6.40;1.00
16154;DHT22;8182;55.648;13.208;2024-01-25T10:00:21;6.70;1.00
16154;DHT22;8182;55.648;13.208;2024-01-25T10:02:48;6.60;1.00
16154;DHT22;8182;55.648;13.208;2024-01-25T10:05:16;6.70;1.00
16154;DHT22;8182;55.648;13.208;2024-01-25T10:07:45;7.10;1.00
16154;DHT22;8182;55.648;13.208;2024-01-25T10:10:13;7.00;1.00
16154;DHT22;8182;55.648;13.208;2024-01-25T10:12:41;7.20;1.00
16154;DHT22;8182;55.648;13.208;2024-01-25T10:15:09;7.40;1.00
16154;DHT22;8182;55.648;13.208;2024-01-25T10:17:36;7.30;1.00
16154;DHT22;8182;55.648;13.208;2024-01-25T10:20:05;7.40;1.00
16154;DHT22;8182;55.648;13.208;2024-01-25T10:22:37;7.40;1.00
16154;DHT22;8182;55.648;13.208;2024-01-25T10:25:12;7.80;1.00
16154;DHT22;8182;55.648;13.208;2024-01-25T10:27:39;8.10;1.00
16154;DHT22;8182;55.648;13.208;2024-01-25T10:30:07;8.50;1.00
16154;DHT22;8182;55.648;13.208;2024-01-25T10:32:36;9.30;1.00
16154;DHT22;8182;55.648;13.208;2024-01-25T10:35:04;9.50;1.00
16154;DHT22;8182;55.648;13.208;2024-01-25T10:37:33;10.00;1.00
16154;DHT22;8182;55.648;13.208;2024-01-25T10:40:00;10.30;1.00
16154;DHT22;8182;55.648;13.208;2024-01-25T10:42:30;10.50;1.00
16154;DHT22;8182;55.648;13.208;2024-01-25T10:44:57;10.70;1.00
16154;DHT22;8182;55.648;13.208;2024-01-25T10:47:24;11.00;1.00
16154;DHT22;8182;55.648;13.208;2024-01-25T10:49:53;11.10;1.00
16154;DHT22;8182;55.648;13.208;2024-01-25T10:52:20;11.20;1.00
16154;DHT22;8182;55.648;13.208;2024-01-25T10:54:48;10.80;1.00
16154;DHT22;8182;55.648;13.208;2024-01-25T10:57:15;10.90;1.00
16154;DHT22;8182;55.648;13.208;2024-01-25T10:59:44;10.90;1.00
16154;DHT22;8182;55.648;13.208;2024-01-25T11:02:11;11.00;1.00
16154;DHT22;8182;55.648;13.208;2024-01-25T11:04:38;11.10;1.00
16154;DHT22;8182;55.648;13.208;2024-01-25T11:07:06;11.10;1.00
16154;DHT22;8182;55.648;13.208;2024-01-25T11:09:35;11.40;1.00
16154;DHT22;8182;55.648;13.208;2024-01-25T11:12:11;11.30;1.00
16154;DHT22;8182;55.648;13.208;2024-01-25T11:14:38;10.70;1.00
16154;DHT22;8182;55.648;13.208;2024-01-25T11:17:18;10.50;1.00
16154;DHT22;8182;55.648;13.208;2024-01-25T11:19:46;9.20;1.00
16154;DHT22;8182;55.648;13.208;2024-01-25T11:22:14;8.50;1.00
16154;DHT22;8182;55.648;13.208;2024-01-25T11:24:41;8.20;1.00
16154;DHT22;8182;55.648;13.208;2024-01-25T11:27:09;8.00;1.00
16154;DHT22;8182;55.648;13.208;2024-01-25T11:29:38;7.80;1.00
16154;DHT22;8182;55.648;13.208;2024-01-25T11:32:06;7.60;1.00
16154;DHT22;8182;55.648;13.208;2024-01-25T11:34:34;7.70;1.00
16154;DHT22;8182;55.648;13.208;2024-01-25T11:37:01;7.70;1.00
16154;DHT22;8182;55.648;13.208;2024-01-25T11:39:28;7.70;1.00
16154;DHT22;8182;55.648;13.208;2024-01-25T11:41:55;7.60;1.00
16154;DHT22;8182;55.648;13.208;2024-01-25T11:44:22;7.50;1.00
16154;DHT22;8182;55.648;13.208;2024-01-25T11:46:50;7.30;1.00
16154;DHT22;8182;55.648;13.208;2024-01-25T11:49:17;7.30;1.00
16154;DHT22;8182;55.648;13.208;2024-01-25T11:51:45;7.30;1.00
16154;DHT22;8182;55.648;13.208;2024-01-25T11:54:12;7.20;1.00
16154;DHT22;8182;55.648;13.208;2024-01-25T11:56:42;7.00;1.00
16154;DHT22;8182;55.648;13.208;2024-01-25T11:59:10;6.80;1.00
16154;DHT22;8182;55.648;13.208;2024-01-25T12:01:37;6.90;1.00
16154;DHT22;8182;55.648;13.208;2024-01-25T12:04:05;6.80;1.00
16154;DHT22;8182;55.648;13.208;2024-01-25T12:06:32;6.80;1.00
16154;DHT22;8182;55.648;13.208;2024-01-25T12:09:08;6.90;1.00
16154;DHT22;8182;55.648;13.208;2024-01-25T12:11:35;6.90;1.00
16154;DHT22;8182;55.648;13.208;2024-01-25T12:14:02;6.90;1.00
16154;DHT22;8182;55.648;13.208;2024-01-25T12:16:29;6.80;1.00
16154;DHT22;8182;55.648;13.208;2024-01-25T12:18:56;6.90;1.00
16154;DHT22;8182;55.648;13.208;2024-01-25T12:21:23;6.80;1.00
16154;DHT22;8182;55.648;13.208;2024-01-25T12:23:50;6.80;1.00
16154;DHT22;8182;55.648;13.208;2024-01-25T12:26:19;6.80;1.00
16154;DHT22;8182;55.648;13.208;2024-01-25T12:28:46;6.70;1.00
16154;DHT22;8182;55.648;13.208;2024-01-25T12:31:14;6.70;1.00
16154;DHT22;8182;55.648;13.208;2024-01-25T12:33:41;6.80;1.00
16154;DHT22;8182;55.648;13.208;2024-01-25T12:36:09;6.80;1.00
16154;DHT22;8182;55.648;13.208;2024-01-25T12:38:36;6.80;1.00
16154;DHT22;8182;55.648;13.208;2024-01-25T12:41:03;6.70;1.00
16154;DHT22;8182;55.648;13.208;2024-01-25T12:43:32;6.70;1.00
16154;DHT22;8182;55.648;13.208;2024-01-25T12:45:59;6.60;1.00
16154;DHT22;8182;55.648;13.208;2024-01-25T12:48:25;6.60;1.00
16154;DHT22;8182;55.648;13.208;2024-01-25T12:50:52;6.50;1.00
16154;DHT22;8182;55.648;13.208;2024-01-25T12:53:19;6.50;1.00
16154;DHT22;8182;55.648;13.208;2024-01-25T12:55:49;6.50;1.00
16154;DHT22;8182;55.648;13.208;2024-01-25T12:58:16;6.50;1.00
16154;DHT22;8182;55.648;13.208;2024-01-25T13:00:45;6.40;1.00
16154;DHT22;8182;55.648;13.208;2024-01-25T13:03:12;6.40;1.00
16154;DHT22;8182;55.648;13.208;2024-01-25T13:05:39;6.40;1.00
16154;DHT22;8182;55.648;13.208;2024-01-25T13:08:06;6.30;1.00
16154;DHT22;8182;55.648;13.208;2024-01-25T13:10:33;6.10;1.00
16154;DHT22;8182;55.648;13.208;2024-01-25T13:13:00;6.00;1.00
16154;DHT22;8182;55.648;13.208;2024-01-25T13:15:27;6.00;1.00
16154;DHT22;8182;55.648;13.208;2024-01-25T13:17:56;6.10;1.00
16154;DHT22;8182;55.648;13.208;2024-01-25T13:20:23;6.00;1.00
16154;DHT22;8182;55.648;13.208;2024-01-25T13:22:50;5.90;1.00
16154;DHT22;8182;55.648;13.208;2024-01-25T13:25:17;5.80;1.00
16154;DHT22;8182;55.648;13.208;2024-01-25T13:27:44;5.90;1.00
16154;DHT22;8182;55.648;13.208;2024-01-25T13:30:11;5.80;1.00
16154;DHT22;8182;55.648;13.208;2024-01-25T13:32:39;5.90;1.00
16154;DHT22;8182;55.648;13.208;2024-01-25T13:35:07;5.80;1.00
16154;DHT22;8182;55.648;13.208;2024-01-25T13:37:34;5.80;1.00
16154;DHT22;8182;55.648;13.208;2024-01-25T13:40:01;5.80;1.00
16154;DHT22;8182;55.648;13.208;2024-01-25T13:42:29;5.80;1.00
16154;DHT22;8182;55.648;13.208;2024-01-25T13:44:57;5.70;1.00
16154;DHT22;8182;55.648;13.208;2024-01-25T13:47:24;5.70;1.00
16154;DHT22;8182;55.648;13.208;2024-01-25T13:49:51;5.70;1.00
16154;DHT22;8182;55.648;13.208;2024-01-25T13:52:19;5.70;1.00
16154;DHT22;8182;55.648;13.208;2024-01-25T13:54:47;5.70;1.00
16154;DHT22;8182;55.648;13.208;2024-01-25T13:57:15;5.70;1.00
16154;DHT22;8182;55.648;13.208;2024-01-25T13:59:42;5.60;1.00
16154;DHT22;8182;55.648;13.208;2024-01-25T14:02:09;5.70;1.00
16154;DHT22;8182;55.648;13.208;2024-01-25T14:04:35;5.60;1.00
16154;DHT22;8182;55.648;13.208;2024-01-25T14:07:03;5.40;1.00
16154;DHT22;8182;55.648;13.208;2024-01-25T14:09:31;5.30;1.00
16154;DHT22;8182;55.648;13.208;2024-01-25T14:11:58;5.30;1.00
16154;DHT22;8182;55.648;13.208;2024-01-25T14:14:25;5.30;1.00
16154;DHT22;8182;55.648;13.208;2024-01-25T14:16:51;5.30;1.00
16154;DHT22;8182;55.648;13.208;2024-01-25T14:19:21;5.30;1.00
16154;DHT22;8182;55.648;13.208;2024-01-25T14:21:48;5.20;1.00
16154;DHT22;8182;55.648;13.208;2024-01-25T14:24:16;5.30;1.00
16154;DHT22;8182;55.648;13.208;2024-01-25T14:26:45;5.20;1.00
16154;DHT22;8182;55.648;13.208;2024-01-25T14:29:12;5.10;1.00
16154;DHT22;8182;55.648;13.208;2024-01-25T14:31:39;5.10;1.00
16154;DHT22;8182;55.648;13.208;2024-01-25T14:34:07;5.00;1.00
16154;DHT22;8182;55.648;13.208;2024-01-25T14:36:34;4.80;1.00
16154;DHT22;8182;55.648;13.208;2024-01-25T14:39:01;4.80;1.00
16154;DHT22;8182;55.648;13.208;2024-01-25T14:41:29;4.70;1.00
16154;DHT22;8182;55.648;13.208;2024-01-25T14:43:57;4.80;1.00
16154;DHT22;8182;55.648;13.208;2024-01-25T14:46:24;4.80;1.00
16154;DHT22;8182;55.648;13.208;2024-01-25T14:48:51;4.80;1.00
16154;DHT22;8182;55.648;13.208;2024-01-25T14:51:18;4.70;1.00
16154;DHT22;8182;55.648;13.208;2024-01-25T14:53:45;4.70;1.00
16154;DHT22;8182;55.648;13.208;2024-01-25T14:56:12;4.60;1.00
16154;DHT22;8182;55.648;13.208;2024-01-25T14:58:39;4.60;1.00
16154;DHT22;8182;55.648;13.208;2024-01-25T15:01:13;4.50;1.00
16154;DHT22;8182;55.648;13.208;2024-01-25T15:03:39;4.30;1.00
16154;DHT22;8182;55.648;13.208;2024-01-25T15:06:06;4.40;1.00
16154;DHT22;8182;55.648;13.208;2024-01-25T15:08:33;4.30;1.00
16154;DHT22;8182;55.648;13.208;2024-01-25T15:11:00;4.30;1.00
16154;DHT22;8182;55.648;13.208;2024-01-25T15:13:28;4.30;1.00
16154;DHT22;8182;55.648;13.208;2024-01-25T15:15:55;4.20;1.00
16154;DHT22;8182;55.648;13.208;2024-01-25T15:18:23;4.10;1.00
16154;DHT22;8182;55.648;13.208;2024-01-25T15:20:50;4.10;1.00
16154;DHT22;8182;55.648;13.208;2024-01-25T15:23:18;4.10;1.00
16154;DHT22;8182;55.648;13.208;2024-01-25T15:25:45;4.00;1.00
16154;DHT22;8182;55.648;13.208;2024-01-25T15:28:12;3.90;1.00
16154;DHT22;8182;55.648;13.208;2024-01-25T15:30:39;3.80;1.00
16154;DHT22;8182;55.648;13.208;2024-01-25T15:33:06;3.80;1.00
16154;DHT22;8182;55.648;13.208;2024-01-25T15:35:34;3.80;1.00
16154;DHT22;8182;55.648;13.208;2024-01-25T15:38:01;3.50;1.00
16154;DHT22;8182;55.648;13.208;2024-01-25T15:40:31;3.40;1.00
16154;DHT22;8182;55.648;13.208;2024-01-25T15:42:58;3.30;1.00
16154;DHT22;8182;55.648;13.208;2024-01-25T15:45:24;3.10;1.00
16154;DHT22;8182;55.648;13.208;2024-01-25T15:47:51;2.70;1.00
16154;DHT22;8182;55.648;13.208;2024-01-25T15:50:18;2.60;1.00
16154;DHT22;8182;55.648;13.208;2024-01-25T15:52:50;2.60;1.00
16154;DHT22;8182;55.648;13.208;2024-01-25T15:55:17;2.60;1.00
16154;DHT22;8182;55.648;13.208;2024-01-25T15:57:44;2.50;1.00
16154;DHT22;8182;55.648;13.208;2024-01-25T16:00:11;2.70;1.00
16154;DHT22;8182;55.648;13.208;2024-01-25T16:02:40;2.60;1.00